sensor_id;sensor_type;location;lat;lon;timestamp;P1;durP1;ratioP1;P2;durP2;ratioP2
64826;SDS011;51265;53.972;12.286;2022-08-27T00:00:16;30.45;;;15.75;;
64826;SDS011;51265;53.972;12.286;2022-08-27T00:02:44;34.10;;;15.05;;
64826;SDS011;51265;53.972;12.286;2022-08-27T00:05:11;25.13;;;13.20;;
64826;SDS011;51265;53.972;12.286;2022-08-27T00:07:38;31.38;;;14.25;;
64826;SDS011;51265;53.972;12.286;2022-08-27T00:10:11;21.45;;;13.15;;
64826;SDS011;51265;53.972;12.286;2022-08-27T00:12:39;28.05;;;14.52;;
64826;SDS011;51265;53.972;12.286;2022-08-27T00:15:05;22.85;;;13.98;;
64826;SDS011;51265;53.972;12.286;2022-08-27T00:17:32;47.72;;;18.00;;
64826;SDS011;51265;53.972;12.286;2022-08-27T00:19:59;40.25;;;19.20;;
64826;SDS011;51265;53.972;12.286;2022-08-27T00:22:26;48.40;;;21.17;;
64826;SDS011;51265;53.972;12.286;2022-08-27T00:24:52;41.75;;;21.17;;
64826;SDS011;51265;53.972;12.286;2022-08-27T00:27:18;47.03;;;22.48;;
64826;SDS011;51265;53.972;12.286;2022-08-27T00:29:44;59.45;;;23.63;;
64826;SDS011;51265;53.972;12.286;2022-08-27T00:32:11;59.03;;;24.38;;
64826;SDS011;51265;53.972;12.286;2022-08-27T00:34:39;59.20;;;24.02;;
64826;SDS011;51265;53.972;12.286;2022-08-27T00:37:05;53.95;;;24.65;;
64826;SDS011;51265;53.972;12.286;2022-08-27T00:39:31;51.50;;;22.98;;
64826;SDS011;51265;53.972;12.286;2022-08-27T00:41:58;48.05;;;24.35;;
64826;SDS011;51265;53.972;12.286;2022-08-27T00:44:25;69.28;;;26.08;;
64826;SDS011;51265;53.972;12.286;2022-08-27T00:46:54;52.08;;;24.73;;
64826;SDS011;51265;53.972;12.286;2022-08-27T00:49:26;64.95;;;27.73;;
64826;SDS011;51265;53.972;12.286;2022-08-27T00:52:12;50.53;;;26.20;;
64826;SDS011;51265;53.972;12.286;2022-08-27T00:54:39;61.10;;;26.83;;
64826;SDS011;51265;53.972;12.286;2022-08-27T00:57:05;63.53;;;28.10;;
64826;SDS011;51265;53.972;12.286;2022-08-27T00:59:31;70.00;;;29.08;;
64826;SDS011;51265;53.972;12.286;2022-08-27T01:01:58;61.42;;;27.80;;
64826;SDS011;51265;53.972;12.286;2022-08-27T01:07:24;74.88;;;31.73;;
64826;SDS011;51265;53.972;12.286;2022-08-27T01:09:52;94.80;;;36.25;;
64826;SDS011;51265;53.972;12.286;2022-08-27T01:12:22;101.60;;;37.78;;
64826;SDS011;51265;53.972;12.286;2022-08-27T01:14:48;85.95;;;36.50;;
64826;SDS011;51265;53.972;12.286;2022-08-27T01:17:14;82.82;;;36.08;;
64826;SDS011;51265;53.972;12.286;2022-08-27T01:24:55;88.25;;;38.65;;
64826;SDS011;51265;53.972;12.286;2022-08-27T01:27:25;98.63;;;39.10;;
64826;SDS011;51265;53.972;12.286;2022-08-27T01:29:53;89.03;;;39.80;;
64826;SDS011;51265;53.972;12.286;2022-08-27T01:32:20;88.82;;;38.13;;
64826;SDS011;51265;53.972;12.286;2022-08-27T01:34:48;74.57;;;34.28;;
64826;SDS011;51265;53.972;12.286;2022-08-27T01:37:15;82.00;;;35.53;;
64826;SDS011;51265;53.972;12.286;2022-08-27T01:39:42;93.18;;;36.90;;
64826;SDS011;51265;53.972;12.286;2022-08-27T01:42:10;73.85;;;34.65;;
64826;SDS011;51265;53.972;12.286;2022-08-27T01:44:46;59.53;;;29.98;;
64826;SDS011;51265;53.972;12.286;2022-08-27T01:47:15;58.33;;;27.67;;
64826;SDS011;51265;53.972;12.286;2022-08-27T01:49:42;55.40;;;27.85;;
64826;SDS011;51265;53.972;12.286;2022-08-27T01:52:08;48.50;;;25.10;;
64826;SDS011;51265;53.972;12.286;2022-08-27T01:54:35;39.53;;;22.33;;
64826;SDS011;51265;53.972;12.286;2022-08-27T01:57:01;53.38;;;23.55;;
64826;SDS011;51265;53.972;12.286;2022-08-27T01:59:27;60.83;;;25.20;;
64826;SDS011;51265;53.972;12.286;2022-08-27T02:01:53;59.72;;;23.95;;
64826;SDS011;51265;53.972;12.286;2022-08-27T02:04:20;66.00;;;24.45;;
64826;SDS011;51265;53.972;12.286;2022-08-27T02:06:47;60.47;;;23.90;;
64826;SDS011;51265;53.972;12.286;2022-08-27T02:09:12;80.57;;;26.50;;
64826;SDS011;51265;53.972;12.286;2022-08-27T02:11:38;78.28;;;27.65;;
64826;SDS011;51265;53.972;12.286;2022-08-27T02:14:04;67.80;;;27.65;;
64826;SDS011;51265;53.972;12.286;2022-08-27T02:16:30;78.13;;;28.50;;
64826;SDS011;51265;53.972;12.286;2022-08-27T02:18:57;53.80;;;26.17;;
64826;SDS011;51265;53.972;12.286;2022-08-27T02:21:24;81.63;;;28.85;;
64826;SDS011;51265;53.972;12.286;2022-08-27T02:23:50;67.10;;;29.00;;
64826;SDS011;51265;53.972;12.286;2022-08-27T02:26:16;66.00;;;29.08;;
64826;SDS011;51265;53.972;12.286;2022-08-27T02:28:42;78.18;;;31.98;;
64826;SDS011;51265;53.972;12.286;2022-08-27T02:31:08;69.85;;;31.35;;
64826;SDS011;51265;53.972;12.286;2022-08-27T02:33:34;80.68;;;33.70;;
64826;SDS011;51265;53.972;12.286;2022-08-27T02:36:00;77.72;;;34.00;;
64826;SDS011;51265;53.972;12.286;2022-08-27T02:38:27;75.88;;;35.13;;
64826;SDS011;51265;53.972;12.286;2022-08-27T02:40:53;108.25;;;38.55;;
64826;SDS011;51265;53.972;12.286;2022-08-27T02:43:18;100.57;;;38.25;;
64826;SDS011;51265;53.972;12.286;2022-08-27T02:45:44;96.65;;;39.08;;
64826;SDS011;51265;53.972;12.286;2022-08-27T02:48:10;96.82;;;38.75;;
64826;SDS011;51265;53.972;12.286;2022-08-27T02:50:36;91.38;;;36.80;;
64826;SDS011;51265;53.972;12.286;2022-08-27T02:53:03;92.78;;;39.63;;
64826;SDS011;51265;53.972;12.286;2022-08-27T02:55:30;113.38;;;41.70;;
64826;SDS011;51265;53.972;12.286;2022-08-27T02:57:57;102.95;;;40.67;;
64826;SDS011;51265;53.972;12.286;2022-08-27T03:00:24;122.22;;;43.17;;
64826;SDS011;51265;53.972;12.286;2022-08-27T03:02:50;124.10;;;42.42;;
64826;SDS011;51265;53.972;12.286;2022-08-27T03:05:17;103.05;;;38.90;;
64826;SDS011;51265;53.972;12.286;2022-08-27T03:07:43;111.45;;;40.65;;
64826;SDS011;51265;53.972;12.286;2022-08-27T03:10:11;76.25;;;33.30;;
64826;SDS011;51265;53.972;12.286;2022-08-27T03:12:39;70.45;;;33.58;;
64826;SDS011;51265;53.972;12.286;2022-08-27T03:15:06;89.78;;;35.00;;
64826;SDS011;51265;53.972;12.286;2022-08-27T03:17:34;143.38;;;41.55;;
64826;SDS011;51265;53.972;12.286;2022-08-27T03:20:19;163.70;;;44.05;;
64826;SDS011;51265;53.972;12.286;2022-08-27T03:22:45;96.57;;;36.13;;
64826;SDS011;51265;53.972;12.286;2022-08-27T03:25:11;138.40;;;44.60;;
64826;SDS011;51265;53.972;12.286;2022-08-27T03:27:37;178.40;;;46.95;;
64826;SDS011;51265;53.972;12.286;2022-08-27T03:30:05;217.55;;;51.92;;
64826;SDS011;51265;53.972;12.286;2022-08-27T03:32:33;220.77;;;53.78;;
64826;SDS011;51265;53.972;12.286;2022-08-27T03:34:59;267.77;;;57.78;;
64826;SDS011;51265;53.972;12.286;2022-08-27T03:37:25;284.38;;;62.83;;
64826;SDS011;51265;53.972;12.286;2022-08-27T03:39:51;285.70;;;61.20;;
64826;SDS011;51265;53.972;12.286;2022-08-27T03:42:17;300.27;;;61.92;;
64826;SDS011;51265;53.972;12.286;2022-08-27T03:44:44;289.00;;;63.63;;
64826;SDS011;51265;53.972;12.286;2022-08-27T03:47:09;271.17;;;62.97;;
64826;SDS011;51265;53.972;12.286;2022-08-27T03:49:36;302.70;;;66.72;;
64826;SDS011;51265;53.972;12.286;2022-08-27T03:52:02;328.10;;;68.07;;
64826;SDS011;51265;53.972;12.286;2022-08-27T03:54:28;344.77;;;71.22;;
64826;SDS011;51265;53.972;12.286;2022-08-27T03:56:55;338.13;;;69.30;;
64826;SDS011;51265;53.972;12.286;2022-08-27T03:59:22;360.67;;;72.90;;
64826;SDS011;51265;53.972;12.286;2022-08-27T04:01:48;370.95;;;72.60;;
64826;SDS011;51265;53.972;12.286;2022-08-27T04:04:14;391.80;;;73.47;;
64826;SDS011;51265;53.972;12.286;2022-08-27T04:06:40;429.48;;;80.00;;
64826;SDS011;51265;53.972;12.286;2022-08-27T04:09:06;398.45;;;76.88;;
64826;SDS011;51265;53.972;12.286;2022-08-27T04:11:34;433.63;;;77.97;;
64826;SDS011;51265;53.972;12.286;2022-08-27T04:14:04;417.13;;;72.28;;
64826;SDS011;51265;53.972;12.286;2022-08-27T04:16:31;459.58;;;72.05;;
64826;SDS011;51265;53.972;12.286;2022-08-27T04:18:58;447.08;;;71.82;;
64826;SDS011;51265;53.972;12.286;2022-08-27T04:21:25;454.83;;;72.30;;
64826;SDS011;51265;53.972;12.286;2022-08-27T04:23:51;455.88;;;70.60;;
64826;SDS011;51265;53.972;12.286;2022-08-27T04:26:17;448.58;;;72.07;;
64826;SDS011;51265;53.972;12.286;2022-08-27T04:28:43;299.13;;;59.28;;
64826;SDS011;51265;53.972;12.286;2022-08-27T04:31:10;416.15;;;67.28;;
64826;SDS011;51265;53.972;12.286;2022-08-27T04:33:36;251.50;;;53.67;;
64826;SDS011;51265;53.972;12.286;2022-08-27T04:36:03;362.98;;;60.88;;
64826;SDS011;51265;53.972;12.286;2022-08-27T04:38:35;369.23;;;61.72;;
64826;SDS011;51265;53.972;12.286;2022-08-27T04:41:02;379.70;;;59.65;;
64826;SDS011;51265;53.972;12.286;2022-08-27T04:43:48;275.70;;;54.75;;
64826;SDS011;51265;53.972;12.286;2022-08-27T04:46:23;487.98;;;66.78;;
64826;SDS011;51265;53.972;12.286;2022-08-27T04:48:57;505.27;;;66.93;;
64826;SDS011;51265;53.972;12.286;2022-08-27T04:51:26;405.25;;;58.40;;
64826;SDS011;51265;53.972;12.286;2022-08-27T04:53:53;391.05;;;58.53;;
64826;SDS011;51265;53.972;12.286;2022-08-27T04:56:21;292.25;;;50.75;;
64826;SDS011;51265;53.972;12.286;2022-08-27T04:58:48;355.52;;;56.92;;
64826;SDS011;51265;53.972;12.286;2022-08-27T05:01:16;342.00;;;55.90;;
64826;SDS011;51265;53.972;12.286;2022-08-27T05:03:47;347.50;;;58.60;;
64826;SDS011;51265;53.972;12.286;2022-08-27T05:06:13;341.63;;;58.20;;
64826;SDS011;51265;53.972;12.286;2022-08-27T05:08:39;297.90;;;54.67;;
64826;SDS011;51265;53.972;12.286;2022-08-27T05:11:06;328.05;;;57.90;;
64826;SDS011;51265;53.972;12.286;2022-08-27T05:13:34;332.48;;;57.83;;
64826;SDS011;51265;53.972;12.286;2022-08-27T05:16:01;239.23;;;50.40;;
64826;SDS011;51265;53.972;12.286;2022-08-27T05:18:29;300.15;;;56.13;;
64826;SDS011;51265;53.972;12.286;2022-08-27T05:20:56;227.43;;;52.50;;
64826;SDS011;51265;53.972;12.286;2022-08-27T05:23:23;230.52;;;54.28;;
64826;SDS011;51265;53.972;12.286;2022-08-27T05:25:49;297.80;;;60.03;;
64826;SDS011;51265;53.972;12.286;2022-08-27T05:28:19;267.27;;;58.45;;
64826;SDS011;51265;53.972;12.286;2022-08-27T05:30:47;242.95;;;58.63;;
64826;SDS011;51265;53.972;12.286;2022-08-27T05:33:19;196.70;;;53.30;;
64826;SDS011;51265;53.972;12.286;2022-08-27T05:35:49;284.23;;;63.75;;
64826;SDS011;51265;53.972;12.286;2022-08-27T05:38:18;245.10;;;61.75;;
64826;SDS011;51265;53.972;12.286;2022-08-27T05:40:48;264.98;;;62.97;;
64826;SDS011;51265;53.972;12.286;2022-08-27T05:43:14;268.67;;;66.85;;
64826;SDS011;51265;53.972;12.286;2022-08-27T05:45:43;212.50;;;64.10;;
64826;SDS011;51265;53.972;12.286;2022-08-27T05:48:12;309.20;;;75.18;;
64826;SDS011;51265;53.972;12.286;2022-08-27T05:50:40;212.80;;;67.13;;
64826;SDS011;51265;53.972;12.286;2022-08-27T05:53:08;250.57;;;70.70;;
64826;SDS011;51265;53.972;12.286;2022-08-27T05:55:36;271.38;;;72.95;;
64826;SDS011;51265;53.972;12.286;2022-08-27T05:58:07;309.55;;;76.63;;
64826;SDS011;51265;53.972;12.286;2022-08-27T06:00:53;288.55;;;76.90;;
64826;SDS011;51265;53.972;12.286;2022-08-27T06:03:29;293.50;;;77.60;;
64826;SDS011;51265;53.972;12.286;2022-08-27T06:06:00;358.55;;;82.93;;
64826;SDS011;51265;53.972;12.286;2022-08-27T06:08:31;318.17;;;78.32;;
64826;SDS011;51265;53.972;12.286;2022-08-27T06:11:01;295.23;;;80.95;;
64826;SDS011;51265;53.972;12.286;2022-08-27T06:13:28;288.48;;;77.65;;
64826;SDS011;51265;53.972;12.286;2022-08-27T06:16:06;327.40;;;79.97;;
64826;SDS011;51265;53.972;12.286;2022-08-27T06:18:34;324.67;;;75.53;;
64826;SDS011;51265;53.972;12.286;2022-08-27T06:21:03;349.70;;;79.35;;
64826;SDS011;51265;53.972;12.286;2022-08-27T06:23:30;348.33;;;79.63;;
64826;SDS011;51265;53.972;12.286;2022-08-27T06:25:56;322.55;;;76.28;;
64826;SDS011;51265;53.972;12.286;2022-08-27T06:28:24;394.52;;;82.22;;
64826;SDS011;51265;53.972;12.286;2022-08-27T06:33:42;363.55;;;78.53;;
64826;SDS011;51265;53.972;12.286;2022-08-27T06:36:10;294.58;;;74.38;;
64826;SDS011;51265;53.972;12.286;2022-08-27T06:38:37;271.83;;;71.00;;
64826;SDS011;51265;53.972;12.286;2022-08-27T06:41:06;257.35;;;70.50;;
64826;SDS011;51265;53.972;12.286;2022-08-27T06:43:36;290.02;;;72.50;;
64826;SDS011;51265;53.972;12.286;2022-08-27T06:46:05;327.10;;;78.65;;
64826;SDS011;51265;53.972;12.286;2022-08-27T06:48:32;258.33;;;70.13;;
64826;SDS011;51265;53.972;12.286;2022-08-27T06:50:59;278.33;;;73.13;;
64826;SDS011;51265;53.972;12.286;2022-08-27T06:53:25;162.70;;;58.08;;
64826;SDS011;51265;53.972;12.286;2022-08-27T06:55:51;171.77;;;56.25;;
64826;SDS011;51265;53.972;12.286;2022-08-27T06:58:18;161.77;;;55.47;;
64826;SDS011;51265;53.972;12.286;2022-08-27T07:00:44;157.68;;;53.67;;
64826;SDS011;51265;53.972;12.286;2022-08-27T07:03:10;182.52;;;56.55;;
64826;SDS011;51265;53.972;12.286;2022-08-27T07:05:37;192.10;;;58.53;;
64826;SDS011;51265;53.972;12.286;2022-08-27T07:08:19;143.43;;;52.70;;
64826;SDS011;51265;53.972;12.286;2022-08-27T07:10:45;206.60;;;58.42;;
64826;SDS011;51265;53.972;12.286;2022-08-27T07:13:11;133.52;;;48.70;;
64826;SDS011;51265;53.972;12.286;2022-08-27T07:15:37;134.90;;;50.60;;
64826;SDS011;51265;53.972;12.286;2022-08-27T07:18:04;165.95;;;54.28;;
64826;SDS011;51265;53.972;12.286;2022-08-27T07:20:30;143.63;;;52.42;;
64826;SDS011;51265;53.972;12.286;2022-08-27T07:22:57;172.07;;;54.28;;
64826;SDS011;51265;53.972;12.286;2022-08-27T07:25:23;136.98;;;52.35;;
64826;SDS011;51265;53.972;12.286;2022-08-27T07:27:50;140.07;;;53.58;;
64826;SDS011;51265;53.972;12.286;2022-08-27T07:30:17;158.45;;;53.60;;
64826;SDS011;51265;53.972;12.286;2022-08-27T07:32:43;155.60;;;53.67;;
64826;SDS011;51265;53.972;12.286;2022-08-27T07:35:11;125.00;;;47.50;;
64826;SDS011;51265;53.972;12.286;2022-08-27T07:37:38;166.25;;;53.42;;
64826;SDS011;51265;53.972;12.286;2022-08-27T07:40:06;155.00;;;53.53;;
64826;SDS011;51265;53.972;12.286;2022-08-27T07:42:38;131.67;;;51.77;;
64826;SDS011;51265;53.972;12.286;2022-08-27T07:45:24;121.47;;;48.38;;
64826;SDS011;51265;53.972;12.286;2022-08-27T07:47:50;137.00;;;50.95;;
64826;SDS011;51265;53.972;12.286;2022-08-27T07:50:16;134.02;;;51.20;;
64826;SDS011;51265;53.972;12.286;2022-08-27T07:52:43;130.30;;;50.58;;
64826;SDS011;51265;53.972;12.286;2022-08-27T07:55:10;129.20;;;49.33;;
64826;SDS011;51265;53.972;12.286;2022-08-27T07:57:37;109.25;;;46.40;;
64826;SDS011;51265;53.972;12.286;2022-08-27T08:00:05;108.20;;;46.05;;
64826;SDS011;51265;53.972;12.286;2022-08-27T08:02:39;105.78;;;41.88;;
64826;SDS011;51265;53.972;12.286;2022-08-27T08:05:06;125.25;;;40.90;;
64826;SDS011;51265;53.972;12.286;2022-08-27T08:07:34;114.50;;;40.65;;
64826;SDS011;51265;53.972;12.286;2022-08-27T08:10:04;104.95;;;37.75;;
64826;SDS011;51265;53.972;12.286;2022-08-27T08:12:33;99.05;;;38.15;;
64826;SDS011;51265;53.972;12.286;2022-08-27T08:15:05;110.25;;;40.17;;
64826;SDS011;51265;53.972;12.286;2022-08-27T08:17:33;115.55;;;40.33;;
64826;SDS011;51265;53.972;12.286;2022-08-27T08:20:00;90.43;;;37.08;;
64826;SDS011;51265;53.972;12.286;2022-08-27T08:22:27;89.05;;;36.47;;
64826;SDS011;51265;53.972;12.286;2022-08-27T08:24:53;74.03;;;33.63;;
64826;SDS011;51265;53.972;12.286;2022-08-27T08:27:19;92.05;;;34.80;;
64826;SDS011;51265;53.972;12.286;2022-08-27T08:29:46;92.43;;;35.50;;
64826;SDS011;51265;53.972;12.286;2022-08-27T08:32:13;88.95;;;34.00;;
64826;SDS011;51265;53.972;12.286;2022-08-27T08:34:40;69.20;;;31.88;;
64826;SDS011;51265;53.972;12.286;2022-08-27T08:37:06;54.38;;;27.60;;
64826;SDS011;51265;53.972;12.286;2022-08-27T08:39:33;59.38;;;26.15;;
64826;SDS011;51265;53.972;12.286;2022-08-27T08:42:01;58.53;;;24.55;;
64826;SDS011;51265;53.972;12.286;2022-08-27T08:44:44;47.70;;;21.80;;
64826;SDS011;51265;53.972;12.286;2022-08-27T08:49:59;50.28;;;23.40;;
64826;SDS011;51265;53.972;12.286;2022-08-27T09:00:51;47.63;;;23.17;;
64826;SDS011;51265;53.972;12.286;2022-08-27T09:03:27;56.55;;;23.50;;
64826;SDS011;51265;53.972;12.286;2022-08-27T09:08:37;51.03;;;22.92;;
64826;SDS011;51265;53.972;12.286;2022-08-27T09:14:00;46.15;;;21.15;;
64826;SDS011;51265;53.972;12.286;2022-08-27T09:16:30;43.90;;;20.88;;
64826;SDS011;51265;53.972;12.286;2022-08-27T09:18:57;40.95;;;19.58;;
64826;SDS011;51265;53.972;12.286;2022-08-27T09:21:35;44.80;;;20.60;;
64826;SDS011;51265;53.972;12.286;2022-08-27T09:26:43;36.13;;;19.58;;
64826;SDS011;51265;53.972;12.286;2022-08-27T09:29:11;36.92;;;20.15;;
64826;SDS011;51265;53.972;12.286;2022-08-27T09:31:48;35.95;;;21.15;;
64826;SDS011;51265;53.972;12.286;2022-08-27T09:34:23;38.13;;;21.60;;
64826;SDS011;51265;53.972;12.286;2022-08-27T09:36:53;46.65;;;23.90;;
64826;SDS011;51265;53.972;12.286;2022-08-27T09:39:37;44.60;;;24.50;;
64826;SDS011;51265;53.972;12.286;2022-08-27T09:42:17;48.67;;;26.05;;
64826;SDS011;51265;53.972;12.286;2022-08-27T09:44:47;50.15;;;27.70;;
64826;SDS011;51265;53.972;12.286;2022-08-27T09:47:14;48.28;;;26.83;;
64826;SDS011;51265;53.972;12.286;2022-08-27T09:49:41;48.42;;;24.63;;
64826;SDS011;51265;53.972;12.286;2022-08-27T09:52:07;41.25;;;23.60;;
64826;SDS011;51265;53.972;12.286;2022-08-27T09:54:44;39.22;;;21.73;;
64826;SDS011;51265;53.972;12.286;2022-08-27T09:57:13;35.22;;;18.92;;
64826;SDS011;51265;53.972;12.286;2022-08-27T09:59:55;30.73;;;15.35;;
64826;SDS011;51265;53.972;12.286;2022-08-27T10:02:22;27.63;;;13.05;;
64826;SDS011;51265;53.972;12.286;2022-08-27T10:04:51;19.63;;;10.93;;
64826;SDS011;51265;53.972;12.286;2022-08-27T10:10:19;17.63;;;9.02;;
64826;SDS011;51265;53.972;12.286;2022-08-27T10:18:51;25.27;;;10.98;;
64826;SDS011;51265;53.972;12.286;2022-08-27T10:21:33;21.15;;;11.52;;
64826;SDS011;51265;53.972;12.286;2022-08-27T10:35:20;24.83;;;12.10;;
64826;SDS011;51265;53.972;12.286;2022-08-27T10:40:42;21.65;;;11.80;;
64826;SDS011;51265;53.972;12.286;2022-08-27T10:48:57;22.85;;;12.20;;
64826;SDS011;51265;53.972;12.286;2022-08-27T10:51:38;27.80;;;12.25;;
64826;SDS011;51265;53.972;12.286;2022-08-27T10:57:24;20.42;;;12.07;;
64826;SDS011;51265;53.972;12.286;2022-08-27T10:59:56;19.98;;;11.52;;
64826;SDS011;51265;53.972;12.286;2022-08-27T11:02:42;17.58;;;10.55;;
64826;SDS011;51265;53.972;12.286;2022-08-27T11:07:46;20.93;;;10.10;;
64826;SDS011;51265;53.972;12.286;2022-08-27T11:10:20;17.02;;;9.68;;
64826;SDS011;51265;53.972;12.286;2022-08-27T11:12:53;16.33;;;9.43;;
64826;SDS011;51265;53.972;12.286;2022-08-27T11:15:26;18.85;;;9.55;;
64826;SDS011;51265;53.972;12.286;2022-08-27T11:26:03;23.25;;;10.77;;
64826;SDS011;51265;53.972;12.286;2022-08-27T11:28:34;16.45;;;11.85;;
64826;SDS011;51265;53.972;12.286;2022-08-27T11:36:54;16.80;;;9.85;;
64826;SDS011;51265;53.972;12.286;2022-08-27T11:39:36;13.82;;;8.52;;
64826;SDS011;51265;53.972;12.286;2022-08-27T11:45:03;15.90;;;8.13;;
64826;SDS011;51265;53.972;12.286;2022-08-27T11:47:40;14.15;;;7.95;;
64826;SDS011;51265;53.972;12.286;2022-08-27T11:50:21;13.60;;;7.57;;
64826;SDS011;51265;53.972;12.286;2022-08-27T11:52:53;13.35;;;7.60;;
64826;SDS011;51265;53.972;12.286;2022-08-27T11:55:25;15.35;;;7.50;;
64826;SDS011;51265;53.972;12.286;2022-08-27T12:00:43;14.73;;;7.10;;
64826;SDS011;51265;53.972;12.286;2022-08-27T12:05:47;8.90;;;6.47;;
64826;SDS011;51265;53.972;12.286;2022-08-27T12:08:30;10.25;;;6.05;;
64826;SDS011;51265;53.972;12.286;2022-08-27T12:14:12;10.25;;;5.53;;
64826;SDS011;51265;53.972;12.286;2022-08-27T12:25:23;11.45;;;5.80;;
64826;SDS011;51265;53.972;12.286;2022-08-27T12:27:57;10.27;;;6.13;;
64826;SDS011;51265;53.972;12.286;2022-08-27T12:30:32;13.70;;;5.35;;
64826;SDS011;51265;53.972;12.286;2022-08-27T12:33:04;10.73;;;5.80;;
64826;SDS011;51265;53.972;12.286;2022-08-27T12:38:21;13.68;;;5.05;;
64826;SDS011;51265;53.972;12.286;2022-08-27T12:41:01;12.85;;;5.40;;
64826;SDS011;51265;53.972;12.286;2022-08-27T12:43:34;8.48;;;4.90;;
64826;SDS011;51265;53.972;12.286;2022-08-27T12:46:17;9.65;;;4.63;;
64826;SDS011;51265;53.972;12.286;2022-08-27T12:51:24;7.88;;;4.43;;
64826;SDS011;51265;53.972;12.286;2022-08-27T13:04:46;4.90;;;2.00;;
64826;SDS011;51265;53.972;12.286;2022-08-27T13:07:30;5.72;;;2.80;;
64826;SDS011;51265;53.972;12.286;2022-08-27T13:10:08;4.22;;;1.98;;
64826;SDS011;51265;53.972;12.286;2022-08-27T13:12:34;3.78;;;1.80;;
64826;SDS011;51265;53.972;12.286;2022-08-27T13:15:08;3.72;;;2.20;;
64826;SDS011;51265;53.972;12.286;2022-08-27T13:17:41;4.10;;;1.95;;
64826;SDS011;51265;53.972;12.286;2022-08-27T13:20:13;5.03;;;1.70;;
64826;SDS011;51265;53.972;12.286;2022-08-27T13:22:53;6.80;;;2.13;;
64826;SDS011;51265;53.972;12.286;2022-08-27T13:25:28;5.43;;;1.80;;
64826;SDS011;51265;53.972;12.286;2022-08-27T13:28:09;5.22;;;1.60;;
64826;SDS011;51265;53.972;12.286;2022-08-27T13:30:39;3.88;;;1.73;;
64826;SDS011;51265;53.972;12.286;2022-08-27T13:33:10;2.92;;;1.98;;
64826;SDS011;51265;53.972;12.286;2022-08-27T13:35:41;4.85;;;1.95;;
64826;SDS011;51265;53.972;12.286;2022-08-27T13:38:09;1.55;;;1.20;;
64826;SDS011;51265;53.972;12.286;2022-08-27T13:40:37;2.65;;;1.70;;
64826;SDS011;51265;53.972;12.286;2022-08-27T13:43:20;2.85;;;1.63;;
64826;SDS011;51265;53.972;12.286;2022-08-27T13:45:54;7.20;;;2.08;;
64826;SDS011;51265;53.972;12.286;2022-08-27T13:48:21;3.42;;;1.98;;
64826;SDS011;51265;53.972;12.286;2022-08-27T13:50:48;3.92;;;2.53;;
64826;SDS011;51265;53.972;12.286;2022-08-27T13:53:21;3.33;;;1.98;;
64826;SDS011;51265;53.972;12.286;2022-08-27T13:56:10;4.25;;;2.50;;
64826;SDS011;51265;53.972;12.286;2022-08-27T13:58:37;5.15;;;2.50;;
64826;SDS011;51265;53.972;12.286;2022-08-27T14:01:09;4.45;;;2.20;;
64826;SDS011;51265;53.972;12.286;2022-08-27T14:03:47;4.68;;;3.08;;
64826;SDS011;51265;53.972;12.286;2022-08-27T14:09:14;6.20;;;3.10;;
64826;SDS011;51265;53.972;12.286;2022-08-27T14:14:13;6.55;;;3.30;;
64826;SDS011;51265;53.972;12.286;2022-08-27T14:16:42;11.43;;;4.30;;
64826;SDS011;51265;53.972;12.286;2022-08-27T14:19:13;7.38;;;3.53;;
64826;SDS011;51265;53.972;12.286;2022-08-27T14:21:50;6.53;;;3.65;;
64826;SDS011;51265;53.972;12.286;2022-08-27T14:24:17;16.17;;;4.50;;
64826;SDS011;51265;53.972;12.286;2022-08-27T14:26:43;10.05;;;4.80;;
64826;SDS011;51265;53.972;12.286;2022-08-27T14:29:13;9.43;;;5.30;;
64826;SDS011;51265;53.972;12.286;2022-08-27T14:31:39;10.57;;;5.45;;
64826;SDS011;51265;53.972;12.286;2022-08-27T14:34:05;13.40;;;5.68;;
64826;SDS011;51265;53.972;12.286;2022-08-27T14:36:31;10.55;;;5.22;;
64826;SDS011;51265;53.972;12.286;2022-08-27T14:39:00;14.60;;;6.10;;
64826;SDS011;51265;53.972;12.286;2022-08-27T14:41:26;18.13;;;7.97;;
64826;SDS011;51265;53.972;12.286;2022-08-27T14:43:52;17.10;;;6.75;;
64826;SDS011;51265;53.972;12.286;2022-08-27T14:46:21;16.17;;;7.00;;
64826;SDS011;51265;53.972;12.286;2022-08-27T14:48:51;20.35;;;7.65;;
64826;SDS011;51265;53.972;12.286;2022-08-27T14:51:21;19.63;;;7.82;;
64826;SDS011;51265;53.972;12.286;2022-08-27T14:53:52;18.15;;;7.35;;
64826;SDS011;51265;53.972;12.286;2022-08-27T14:56:19;17.52;;;7.53;;
64826;SDS011;51265;53.972;12.286;2022-08-27T14:58:46;22.95;;;7.80;;
64826;SDS011;51265;53.972;12.286;2022-08-27T15:01:12;20.25;;;8.45;;
64826;SDS011;51265;53.972;12.286;2022-08-27T15:03:42;21.25;;;8.13;;
64826;SDS011;51265;53.972;12.286;2022-08-27T15:06:13;22.58;;;8.57;;
64826;SDS011;51265;53.972;12.286;2022-08-27T15:08:41;21.48;;;9.63;;
64826;SDS011;51265;53.972;12.286;2022-08-27T15:11:15;18.23;;;9.57;;
64826;SDS011;51265;53.972;12.286;2022-08-27T15:13:43;27.00;;;9.35;;
64826;SDS011;51265;53.972;12.286;2022-08-27T15:16:12;24.42;;;10.05;;
64826;SDS011;51265;53.972;12.286;2022-08-27T15:18:39;27.52;;;10.98;;
64826;SDS011;51265;53.972;12.286;2022-08-27T15:21:06;27.15;;;11.68;;
64826;SDS011;51265;53.972;12.286;2022-08-27T15:23:32;25.27;;;11.50;;
64826;SDS011;51265;53.972;12.286;2022-08-27T15:25:58;20.27;;;11.00;;
64826;SDS011;51265;53.972;12.286;2022-08-27T15:28:24;23.08;;;11.50;;
64826;SDS011;51265;53.972;12.286;2022-08-27T15:30:50;22.35;;;12.05;;
64826;SDS011;51265;53.972;12.286;2022-08-27T15:33:16;23.75;;;13.02;;
64826;SDS011;51265;53.972;12.286;2022-08-27T15:35:44;27.73;;;12.20;;
64826;SDS011;51265;53.972;12.286;2022-08-27T15:38:10;26.10;;;11.40;;
64826;SDS011;51265;53.972;12.286;2022-08-27T15:40:36;18.60;;;9.90;;
64826;SDS011;51265;53.972;12.286;2022-08-27T15:43:05;18.83;;;9.48;;
64826;SDS011;51265;53.972;12.286;2022-08-27T15:45:32;19.25;;;10.25;;
64826;SDS011;51265;53.972;12.286;2022-08-27T15:47:58;18.98;;;8.70;;
64826;SDS011;51265;53.972;12.286;2022-08-27T15:50:25;18.92;;;7.85;;
64826;SDS011;51265;53.972;12.286;2022-08-27T15:52:55;13.57;;;7.00;;
64826;SDS011;51265;53.972;12.286;2022-08-27T15:55:25;12.60;;;6.47;;
64826;SDS011;51265;53.972;12.286;2022-08-27T15:57:53;13.60;;;7.53;;
64826;SDS011;51265;53.972;12.286;2022-08-27T16:00:22;14.25;;;7.32;;
64826;SDS011;51265;53.972;12.286;2022-08-27T16:02:49;21.73;;;7.38;;
64826;SDS011;51265;53.972;12.286;2022-08-27T16:05:16;14.55;;;7.63;;
64826;SDS011;51265;53.972;12.286;2022-08-27T16:07:43;17.30;;;7.45;;
64826;SDS011;51265;53.972;12.286;2022-08-27T16:10:09;16.38;;;6.70;;
64826;SDS011;51265;53.972;12.286;2022-08-27T16:12:36;13.40;;;6.53;;
64826;SDS011;51265;53.972;12.286;2022-08-27T16:15:03;16.38;;;6.40;;
64826;SDS011;51265;53.972;12.286;2022-08-27T16:17:30;13.25;;;6.40;;
64826;SDS011;51265;53.972;12.286;2022-08-27T16:19:57;16.13;;;6.22;;